createdAt,value
2022-07-29T00:00:02.288Z,102786.59
2022-07-29T00:02:33.456Z,102797.94
2022-07-29T00:05:00.344Z,102803.16
2022-07-29T00:07:27.259Z,102801.38
2022-07-29T00:09:54.046Z,102810.00
2022-07-29T00:12:25.576Z,102793.13
2022-07-29T00:14:57.910Z,102792.00
2022-07-29T00:17:25.339Z,102771.50
2022-07-29T00:19:52.320Z,102758.09
2022-07-29T00:22:19.627Z,102741.88
2022-07-29T00:24:48.872Z,102717.78
2022-07-29T00:27:15.628Z,102692.16
2022-07-29T00:29:42.394Z,102674.56
2022-07-29T00:32:09.173Z,102664.81
2022-07-29T00:34:54.413Z,102643.63
2022-07-29T00:37:21.189Z,102635.75
2022-07-29T00:39:48.022Z,102624.31
2022-07-29T00:42:14.820Z,102612.81
2022-07-29T00:44:42.268Z,102585.44
2022-07-29T00:47:11.688Z,102575.81
2022-07-29T00:49:42.713Z,102567.00
2022-07-29T00:52:11.118Z,102554.59
2022-07-29T00:54:44.834Z,102554.75
2022-07-29T00:57:13.093Z,102547.72
2022-07-29T00:59:40.318Z,102538.91
2022-07-29T01:02:07.171Z,102530.19
2022-07-29T01:04:34.874Z,102533.69
2022-07-29T01:07:05.682Z,102525.69
2022-07-29T01:09:43.053Z,102528.44
2022-07-29T01:12:16.250Z,102505.56
2022-07-29T01:14:43.729Z,102513.22
2022-07-29T01:17:31.992Z,102493.78
2022-07-29T01:20:05.094Z,102493.00
2022-07-29T01:22:35.185Z,102485.03
2022-07-29T01:25:24.441Z,102486.72
2022-07-29T01:28:22.977Z,102476.09
2022-07-29T01:30:53.598Z,102463.72
2022-07-29T01:33:41.495Z,102454.91
2022-07-29T01:36:14.315Z,102451.38
2022-07-29T01:38:43.766Z,102452.19
2022-07-29T01:41:15.609Z,102457.56
2022-07-29T01:43:54.841Z,102460.31
2022-07-29T01:46:40.750Z,102467.25
2022-07-29T01:49:12.313Z,102456.75
2022-07-29T01:51:46.649Z,102465.69
2022-07-29T01:54:31.742Z,102468.41
2022-07-29T01:57:00.936Z,102485.31
2022-07-29T01:59:29.938Z,102490.63
2022-07-29T02:02:00.198Z,102471.06
2022-07-29T02:04:29.751Z,102480.00
2022-07-29T02:07:02.312Z,102474.72
2022-07-29T02:09:31.533Z,102481.88
2022-07-29T02:12:02.224Z,102491.56
2022-07-29T02:14:34.511Z,102479.22
2022-07-29T02:17:03.363Z,102475.59
2022-07-29T02:19:33.037Z,102469.38
2022-07-29T02:22:01.544Z,102473.88
2022-07-29T02:24:30.856Z,102474.03
2022-07-29T02:27:00.434Z,102480.09
2022-07-29T02:29:29.596Z,102482.72
2022-07-29T02:31:59.469Z,102465.13
2022-07-29T02:34:29.294Z,102464.31
2022-07-29T02:36:56.923Z,102456.19
2022-07-29T02:39:25.415Z,102455.50
2022-07-29T02:41:59.464Z,102452.75
2022-07-29T02:44:30.068Z,102452.88
2022-07-29T02:47:42.169Z,102448.34
2022-07-29T02:50:49.815Z,102438.72
2022-07-29T02:53:23.024Z,102421.84
2022-07-29T02:55:56.495Z,102424.53
2022-07-29T02:58:29.797Z,102411.59
2022-07-29T03:00:59.497Z,102422.94
2022-07-29T03:03:31.214Z,102425.63
2022-07-29T03:05:59.091Z,102412.44
2022-07-29T03:08:26.065Z,102416.03
2022-07-29T03:10:54.633Z,102412.47
2022-07-29T03:13:21.613Z,102416.97
2022-07-29T03:15:49.200Z,102417.94
2022-07-29T03:18:16.644Z,102420.78
2022-07-29T03:20:44.221Z,102405.88
2022-07-29T03:23:11.046Z,102408.25
2022-07-29T03:25:38.193Z,102405.72
2022-07-29T03:28:05.132Z,102399.69
2022-07-29T03:30:32.180Z,102403.13
2022-07-29T03:32:59.053Z,102393.38
2022-07-29T03:35:25.906Z,102392.63
2022-07-29T03:37:52.760Z,102394.56
2022-07-29T03:40:34.055Z,102402.56
2022-07-29T03:43:01.953Z,102399.88
2022-07-29T03:45:31.759Z,102397.19
2022-07-29T03:48:09.399Z,102399.00
2022-07-29T03:50:37.604Z,102405.41
2022-07-29T03:53:04.752Z,102418.69
2022-07-29T03:55:38.732Z,102414.06
2022-07-29T03:58:07.689Z,102415.88
2022-07-29T04:00:35.340Z,102415.88
2022-07-29T04:03:04.655Z,102413.16
2022-07-29T04:05:37.853Z,102405.19
2022-07-29T04:08:04.949Z,102420.16
2022-07-29T04:10:34.012Z,102413.03
2022-07-29T04:13:01.093Z,102413.88
2022-07-29T04:15:31.334Z,102412.81
2022-07-29T04:17:59.741Z,102411.91
2022-07-29T04:20:26.734Z,102403.78
2022-07-29T04:22:53.544Z,102404.00
2022-07-29T04:25:20.422Z,102404.63
2022-07-29T04:28:04.049Z,102394.81
2022-07-29T04:30:31.922Z,102382.59
2022-07-29T04:32:59.079Z,102378.81
2022-07-29T04:35:25.981Z,102370.78
2022-07-29T04:37:52.729Z,102358.34
2022-07-29T04:40:19.713Z,102359.97
2022-07-29T04:42:47.811Z,102359.94
2022-07-29T04:45:15.072Z,102356.28
2022-07-29T04:47:43.164Z,102349.97
2022-07-29T04:50:10.922Z,102344.47
2022-07-29T04:52:38.120Z,102339.28
2022-07-29T04:55:06.676Z,102334.81
2022-07-29T04:57:33.789Z,102316.22
2022-07-29T05:00:00.880Z,102317.88
2022-07-29T05:02:27.726Z,102321.59
2022-07-29T05:04:54.521Z,102310.03
2022-07-29T05:07:21.457Z,102315.44
2022-07-29T05:09:48.294Z,102313.75
2022-07-29T05:12:15.084Z,102304.72
2022-07-29T05:14:41.960Z,102298.47
2022-07-29T05:17:09.057Z,102295.59
2022-07-29T05:19:39.647Z,102288.78
2022-07-29T05:22:07.195Z,102288.59
2022-07-29T05:24:34.046Z,102293.22
2022-07-29T05:27:00.956Z,102281.91
2022-07-29T05:29:44.518Z,102279.75
2022-07-29T05:32:13.382Z,102282.59
2022-07-29T05:34:51.279Z,102264.13
2022-07-29T05:37:22.025Z,102269.41
2022-07-29T05:39:56.129Z,102279.97
2022-07-29T05:42:24.385Z,102274.34
2022-07-29T05:44:51.167Z,102264.13
2022-07-29T05:47:18.062Z,102264.78
2022-07-29T05:49:44.857Z,102265.22
2022-07-29T05:52:11.662Z,102266.94
2022-07-29T05:54:38.482Z,102257.16
2022-07-29T05:57:06.325Z,102248.34
2022-07-29T05:59:37.433Z,102241.16
2022-07-29T06:02:06.084Z,102228.91
2022-07-29T06:04:34.607Z,102233.03
2022-07-29T06:07:02.695Z,102222.94
2022-07-29T06:09:29.945Z,102232.03
2022-07-29T06:11:57.201Z,102216.94
2022-07-29T06:14:23.974Z,102208.88
2022-07-29T06:16:50.912Z,102207.25
2022-07-29T06:19:17.703Z,102178.19
2022-07-29T06:21:45.153Z,102164.50
2022-07-29T06:24:13.458Z,102161.88
2022-07-29T06:26:41.340Z,102154.31
2022-07-29T06:29:09.050Z,102141.75
2022-07-29T06:31:35.783Z,102152.66
2022-07-29T06:34:02.535Z,102139.56
2022-07-29T06:36:30.467Z,102134.88
2022-07-29T06:38:57.260Z,102138.94
2022-07-29T06:41:25.427Z,102121.09
2022-07-29T06:43:56.882Z,102135.97
2022-07-29T06:46:24.128Z,102134.84
2022-07-29T06:48:52.608Z,102127.31
2022-07-29T06:51:22.846Z,102125.19
2022-07-29T06:53:59.610Z,102129.25
2022-07-29T06:56:39.109Z,102141.91
2022-07-29T06:59:08.447Z,102136.50
2022-07-29T07:01:37.133Z,102141.06
2022-07-29T07:04:04.295Z,102126.31
2022-07-29T07:06:31.071Z,102122.03
2022-07-29T07:08:57.932Z,102115.75
2022-07-29T07:11:24.751Z,102117.75
2022-07-29T07:13:51.521Z,102103.72
2022-07-29T07:16:18.515Z,102101.84
2022-07-29T07:18:46.306Z,102116.19
2022-07-29T07:21:19.266Z,102106.88
2022-07-29T07:23:47.097Z,102107.16
2022-07-29T07:26:13.878Z,102101.19
2022-07-29T07:28:40.649Z,102085.88
2022-07-29T07:31:07.379Z,102088.47
2022-07-29T07:33:34.196Z,102082.63
2022-07-29T07:36:01.041Z,102089.00
2022-07-29T07:38:27.908Z,102095.81
2022-07-29T07:40:55.362Z,102082.28
2022-07-29T07:43:22.844Z,102083.50
2022-07-29T07:45:49.709Z,102076.22
2022-07-29T07:48:16.644Z,102065.59
2022-07-29T07:50:44.709Z,102063.56
2022-07-29T07:53:11.734Z,102060.00
2022-07-29T07:58:29.632Z,102055.78
2022-07-29T08:00:56.519Z,102055.97
2022-07-29T08:03:23.368Z,102058.06
2022-07-29T08:05:52.695Z,102066.63
2022-07-29T08:08:19.719Z,102065.00
2022-07-29T08:10:53.058Z,102067.41
2022-07-29T08:13:25.273Z,102065.19
2022-07-29T08:16:02.623Z,102058.38
2022-07-29T08:18:31.869Z,102060.25
2022-07-29T08:21:00.095Z,102062.03
2022-07-29T08:23:32.944Z,102067.50
2022-07-29T08:26:14.779Z,102059.25
2022-07-29T08:28:47.120Z,102052.66
2022-07-29T08:31:15.062Z,102034.66
2022-07-29T08:33:42.129Z,102029.53
2022-07-29T08:36:09.595Z,102022.56
2022-07-29T08:38:36.369Z,102022.25
2022-07-29T08:41:03.219Z,102029.53
2022-07-29T08:43:30.197Z,102021.53
2022-07-29T08:45:57.262Z,102014.16
2022-07-29T08:48:25.812Z,102003.75
2022-07-29T08:50:57.149Z,102003.41
2022-07-29T08:53:27.795Z,101994.78
2022-07-29T08:55:55.665Z,101997.44
2022-07-29T08:58:24.783Z,101995.69
2022-07-29T09:00:57.858Z,101992.69
2022-07-29T09:03:30.631Z,102000.66
2022-07-29T09:05:59.075Z,101988.22
2022-07-29T09:08:26.570Z,101993.59
2022-07-29T09:10:54.400Z,101986.59
2022-07-29T09:13:21.155Z,101998.19
2022-07-29T09:15:47.930Z,101981.19
2022-07-29T09:18:39.972Z,101973.22
2022-07-29T09:21:28.257Z,101970.69
2022-07-29T09:24:09.811Z,101980.88
2022-07-29T09:26:40.057Z,101985.59
2022-07-29T09:29:11.333Z,101978.09
2022-07-29T09:31:40.494Z,101982.13
2022-07-29T09:34:08.484Z,101980.16
2022-07-29T09:36:47.145Z,101972.94
2022-07-29T09:39:15.523Z,101979.59
2022-07-29T09:41:56.317Z,101981.75
2022-07-29T09:44:24.240Z,101977.22
2022-07-29T09:47:06.893Z,101984.94
2022-07-29T09:49:35.452Z,101979.69
2022-07-29T09:52:04.822Z,101975.06
2022-07-29T09:54:37.588Z,101981.44
2022-07-29T09:57:10.758Z,101979.81
2022-07-29T09:59:37.599Z,101979.03
2022-07-29T10:02:22.736Z,101976.72
2022-07-29T10:04:50.843Z,101974.03
2022-07-29T10:07:17.681Z,101967.97
2022-07-29T10:09:54.259Z,101975.94
2022-07-29T10:12:21.088Z,101979.03
2022-07-29T10:14:48.427Z,101963.63
2022-07-29T10:17:17.134Z,101963.78
2022-07-29T10:19:44.218Z,101963.31
2022-07-29T10:22:11.643Z,101953.22
2022-07-29T10:24:39.693Z,101954.66
2022-07-29T10:27:08.955Z,101954.25
2022-07-29T10:29:36.799Z,101954.97
2022-07-29T10:32:21.853Z,101962.94
2022-07-29T10:35:19.200Z,101961.06
2022-07-29T10:38:17.453Z,101957.88
2022-07-29T10:41:32.074Z,101962.63
2022-07-29T10:47:00.993Z,101949.38
2022-07-29T10:49:31.119Z,101955.47
2022-07-29T10:52:08.220Z,101955.84
2022-07-29T10:54:39.702Z,101956.38
2022-07-29T10:57:52.999Z,101955.00
2022-07-29T11:00:28.966Z,101947.13
2022-07-29T11:02:57.562Z,101951.09
2022-07-29T11:05:40.105Z,101947.41
2022-07-29T11:08:20.157Z,101938.47
2022-07-29T11:11:15.874Z,101945.56
2022-07-29T11:13:44.289Z,101930.78
2022-07-29T11:16:11.419Z,101941.34
2022-07-29T11:19:13.918Z,101944.63
2022-07-29T11:21:53.448Z,101945.59
2022-07-29T11:24:33.210Z,101947.19
2022-07-29T11:27:10.880Z,101942.00
2022-07-29T11:29:52.174Z,101946.38
2022-07-29T11:32:22.652Z,101939.41
2022-07-29T11:35:17.370Z,101936.22
2022-07-29T11:38:08.581Z,101934.63
2022-07-29T11:40:38.611Z,101933.84
2022-07-29T11:43:09.393Z,101929.63
2022-07-29T11:45:47.179Z,101926.16
2022-07-29T11:48:31.391Z,101927.13
2022-07-29T11:51:00.546Z,101927.81
2022-07-29T11:53:29.251Z,101930.75
2022-07-29T11:56:00.436Z,101928.22
2022-07-29T11:58:29.496Z,101926.53
2022-07-29T12:00:57.681Z,101916.56
2022-07-29T12:03:33.581Z,101924.59
2022-07-29T12:06:02.598Z,101928.47
2022-07-29T12:08:30.765Z,101916.66
2022-07-29T12:10:57.788Z,101918.84
2022-07-29T12:13:37.739Z,101919.38
2022-07-29T12:16:05.571Z,101925.06
2022-07-29T12:18:33.188Z,101913.13
2022-07-29T12:21:04.660Z,101908.31
2022-07-29T12:23:35.041Z,101909.59
2022-07-29T12:26:07.608Z,101903.16
2022-07-29T12:28:39.742Z,101897.78
2022-07-29T12:31:08.208Z,101895.53
2022-07-29T12:33:36.034Z,101905.44
2022-07-29T12:36:10.486Z,101905.28
2022-07-29T12:38:41.628Z,101896.19
2022-07-29T12:41:08.818Z,101891.97
2022-07-29T12:43:35.988Z,101899.16
2022-07-29T12:46:14.875Z,101896.06
2022-07-29T12:48:44.255Z,101894.00
2022-07-29T12:51:13.346Z,101896.44
2022-07-29T12:53:40.427Z,101889.94
2022-07-29T12:56:40.620Z,101883.03
2022-07-29T12:59:19.997Z,101876.44
2022-07-29T13:01:50.148Z,101880.13
2022-07-29T13:04:29.166Z,101884.72
2022-07-29T13:07:01.442Z,101877.84
2022-07-29T13:09:41.776Z,101893.28
2022-07-29T13:12:13.835Z,101879.25
2022-07-29T13:14:47.584Z,101884.41
2022-07-29T13:17:23.948Z,101882.66
2022-07-29T13:20:06.373Z,101873.47
2022-07-29T13:22:36.800Z,101877.25
2022-07-29T13:25:03.878Z,101881.13
2022-07-29T13:27:33.259Z,101881.34
2022-07-29T13:30:01.983Z,101883.00
2022-07-29T13:32:30.932Z,101887.19
2022-07-29T13:35:01.107Z,101887.66
2022-07-29T13:37:30.662Z,101890.63
2022-07-29T13:39:58.169Z,101888.84
2022-07-29T13:42:25.909Z,101881.25
2022-07-29T13:44:53.067Z,101877.47
2022-07-29T13:47:20.777Z,101879.19
2022-07-29T13:49:47.713Z,101879.56
2022-07-29T13:52:15.151Z,101881.03
2022-07-29T13:54:42.799Z,101881.03
2022-07-29T13:57:11.943Z,101876.50
2022-07-29T13:59:40.392Z,101889.09
2022-07-29T14:02:07.739Z,101877.75
2022-07-29T14:04:34.807Z,101873.94
2022-07-29T14:07:03.724Z,101871.47
2022-07-29T14:09:41.118Z,101873.44
2022-07-29T14:12:09.501Z,101867.47
2022-07-29T14:14:37.628Z,101864.69
2022-07-29T14:17:07.222Z,101869.94
2022-07-29T14:19:36.714Z,101868.44
2022-07-29T14:22:05.931Z,101871.84
2022-07-29T14:24:34.004Z,101873.09
2022-07-29T14:27:04.702Z,101872.84
2022-07-29T14:29:37.213Z,101863.91
2022-07-29T14:32:09.066Z,101867.72
2022-07-29T14:34:40.026Z,101867.00
2022-07-29T14:37:07.331Z,101864.91
2022-07-29T14:39:42.077Z,101866.06
2022-07-29T14:42:12.331Z,101859.91
2022-07-29T14:44:41.362Z,101859.84
2022-07-29T14:47:08.485Z,101869.47
2022-07-29T14:49:36.097Z,101870.69
2022-07-29T14:52:03.424Z,101868.88
2022-07-29T14:54:30.558Z,101874.38
2022-07-29T14:56:58.509Z,101878.28
2022-07-29T14:59:26.181Z,101877.72
2022-07-29T15:01:53.499Z,101872.59
2022-07-29T15:04:21.164Z,101866.13
2022-07-29T15:06:48.136Z,101868.09
2022-07-29T15:09:15.069Z,101868.31
2022-07-29T15:11:41.901Z,101872.44
2022-07-29T15:14:08.686Z,101869.16
2022-07-29T15:16:41.958Z,101871.44
2022-07-29T15:19:11.585Z,101877.16
2022-07-29T15:21:48.066Z,101876.69
2022-07-29T15:24:19.711Z,101873.22
2022-07-29T15:26:47.295Z,101875.28
2022-07-29T15:29:14.544Z,101869.28
2022-07-29T15:31:41.413Z,101867.16
2022-07-29T15:34:08.328Z,101874.47
2022-07-29T15:36:51.402Z,101869.22
2022-07-29T15:39:19.794Z,101871.50
2022-07-29T15:41:46.949Z,101869.63
2022-07-29T15:44:13.854Z,101870.94
2022-07-29T15:46:59.604Z,101863.81
2022-07-29T15:49:48.405Z,101852.69
2022-07-29T15:52:24.753Z,101864.81
2022-07-29T15:54:54.438Z,101857.56
2022-07-29T15:57:21.342Z,101858.25
2022-07-29T15:59:48.122Z,101853.72
2022-07-29T16:02:14.890Z,101867.25
2022-07-29T16:04:41.660Z,101862.81
2022-07-29T16:07:08.509Z,101869.56
2022-07-29T16:09:35.304Z,101856.66
2022-07-29T16:12:02.112Z,101861.78
2022-07-29T16:14:31.876Z,101865.25
2022-07-29T16:16:58.905Z,101864.28
2022-07-29T16:19:25.854Z,101860.78
2022-07-29T16:21:55.887Z,101861.84
2022-07-29T16:24:29.641Z,101860.03
2022-07-29T16:26:57.542Z,101854.66
2022-07-29T16:29:24.530Z,101854.38
2022-07-29T16:31:51.392Z,101855.22
2022-07-29T16:34:18.254Z,101849.69
2022-07-29T16:36:47.840Z,101850.72
2022-07-29T16:39:14.822Z,101852.41
2022-07-29T16:41:42.285Z,101844.13
2022-07-29T16:44:09.308Z,101853.28
2022-07-29T16:46:37.373Z,101852.97
2022-07-29T16:49:05.986Z,101846.81
2022-07-29T16:51:32.823Z,101855.66
2022-07-29T16:53:59.647Z,101849.22
2022-07-29T16:56:26.396Z,101850.19
2022-07-29T16:58:53.178Z,101856.19
2022-07-29T17:01:20.018Z,101856.50
2022-07-29T17:04:05.484Z,101858.84
2022-07-29T17:06:39.670Z,101859.34
2022-07-29T17:09:08.619Z,101868.69
2022-07-29T17:11:53.593Z,101863.13
2022-07-29T17:14:29.514Z,101868.91
2022-07-29T17:17:03.143Z,101865.69
2022-07-29T17:19:32.692Z,101871.88
2022-07-29T17:22:13.074Z,101871.38
2022-07-29T17:24:45.537Z,101863.06
2022-07-29T17:27:12.663Z,101867.09
2022-07-29T17:29:39.819Z,101875.47
2022-07-29T17:32:08.988Z,101879.59
2022-07-29T17:34:40.435Z,101884.25
2022-07-29T17:37:09.684Z,101888.47
2022-07-29T17:39:41.330Z,101897.31
2022-07-29T17:42:09.783Z,101889.94
2022-07-29T17:44:36.874Z,101899.06
2022-07-29T17:47:05.631Z,101893.66
2022-07-29T17:49:36.360Z,101892.53
2022-07-29T17:52:05.012Z,101897.88
2022-07-29T17:54:31.811Z,101895.47
2022-07-29T17:56:58.828Z,101886.53
2022-07-29T17:59:25.780Z,101889.63
2022-07-29T18:01:53.217Z,101899.22
2022-07-29T18:04:21.130Z,101897.69
2022-07-29T18:06:47.974Z,101906.56
2022-07-29T18:09:14.740Z,101912.69
2022-07-29T18:11:44.450Z,101919.59
2022-07-29T18:14:13.352Z,101936.13
2022-07-29T18:16:40.635Z,101940.25
2022-07-29T18:19:07.537Z,101944.88
2022-07-29T18:21:45.784Z,101954.31
2022-07-29T18:24:22.891Z,101961.25
2022-07-29T18:26:49.623Z,101969.06
2022-07-29T18:29:16.370Z,101974.84
2022-07-29T18:31:43.214Z,101976.03
2022-07-29T18:34:09.989Z,101973.66
2022-07-29T18:36:37.097Z,101984.75
2022-07-29T18:39:04.201Z,101990.66
2022-07-29T18:41:31.369Z,101995.78
2022-07-29T18:43:58.162Z,102011.53
2022-07-29T18:46:25.449Z,102013.06
2022-07-29T18:48:52.598Z,102024.38
2022-07-29T18:51:19.477Z,102035.81
2022-07-29T18:53:46.329Z,102051.56
2022-07-29T18:56:13.177Z,102063.38
2022-07-29T18:58:39.952Z,102088.41
2022-07-29T19:01:07.430Z,102102.09
2022-07-29T19:03:34.352Z,102119.25
2022-07-29T19:06:01.176Z,102130.53
2022-07-29T19:08:28.027Z,102147.88
2022-07-29T19:10:54.805Z,102166.88
2022-07-29T19:13:21.577Z,102182.38
2022-07-29T19:15:48.393Z,102189.78
2022-07-29T19:18:15.274Z,102206.16
2022-07-29T19:20:42.189Z,102223.41
2022-07-29T19:23:09.310Z,102234.34
2022-07-29T19:25:36.138Z,102251.41
2022-07-29T19:28:03.436Z,102268.59
2022-07-29T19:30:30.221Z,102291.91
2022-07-29T19:32:57.049Z,102299.16
2022-07-29T19:35:32.849Z,102312.72
2022-07-29T19:38:01.298Z,102324.56
2022-07-29T19:40:29.061Z,102331.00
2022-07-29T19:42:56.236Z,102345.41
2022-07-29T19:45:24.873Z,102352.88
2022-07-29T19:47:54.008Z,102372.66
2022-07-29T19:50:22.902Z,102396.78
2022-07-29T19:52:49.669Z,102403.41
2022-07-29T19:55:16.599Z,102416.03
2022-07-29T19:57:46.690Z,102433.09
2022-07-29T20:00:15.528Z,102452.78
2022-07-29T20:02:42.864Z,102473.16
2022-07-29T20:05:10.603Z,102482.19
2022-07-29T20:07:37.896Z,102501.75
2022-07-29T20:10:06.497Z,102527.44
2022-07-29T20:12:33.358Z,102544.34
2022-07-29T20:15:00.188Z,102570.19
2022-07-29T20:17:28.448Z,102587.13
2022-07-29T20:19:56.336Z,102601.41
2022-07-29T20:22:23.168Z,102627.13
2022-07-29T20:24:50.727Z,102644.00
2022-07-29T20:27:18.300Z,102663.44
2022-07-29T20:29:45.104Z,102680.28
2022-07-29T20:32:12.503Z,102712.06
2022-07-29T20:34:41.296Z,102725.38
2022-07-29T20:37:11.303Z,102750.09
2022-07-29T20:39:38.050Z,102772.19
2022-07-29T20:42:05.088Z,102791.81
2022-07-29T20:44:32.193Z,102798.16
2022-07-29T20:46:59.313Z,102825.41
2022-07-29T20:49:26.633Z,102865.88
2022-07-29T20:51:53.524Z,102898.38
2022-07-29T20:54:20.267Z,102931.75
2022-07-29T20:56:47.045Z,102956.38
2022-07-29T20:59:13.813Z,102967.00
2022-07-29T21:01:41.090Z,102989.97
2022-07-29T21:04:07.995Z,103005.81
2022-07-29T21:06:35.010Z,103021.59
2022-07-29T21:09:01.946Z,103045.91
2022-07-29T21:11:43.837Z,103059.66
2022-07-29T21:14:30.279Z,103041.03
2022-07-29T21:16:57.293Z,103015.38
2022-07-29T21:19:24.258Z,102989.03
2022-07-29T21:21:51.086Z,102989.97
2022-07-29T21:24:19.117Z,102984.75
2022-07-29T21:26:54.530Z,102986.56
2022-07-29T21:29:31.703Z,102990.31
2022-07-29T21:31:58.465Z,102989.66
2022-07-29T21:34:27.982Z,102993.25
2022-07-29T21:36:54.937Z,103011.78
2022-07-29T21:39:21.722Z,103018.06
2022-07-29T21:41:48.730Z,103032.28
2022-07-29T21:44:15.452Z,103031.59
2022-07-29T21:46:42.262Z,103029.09
2022-07-29T21:49:09.032Z,103030.19
2022-07-29T21:51:35.870Z,103026.75
2022-07-29T21:54:03.730Z,103039.16
2022-07-29T21:56:31.493Z,103045.34
2022-07-29T21:58:58.370Z,103063.03
2022-07-29T22:01:25.194Z,103075.47
2022-07-29T22:03:52.057Z,103082.56
2022-07-29T22:06:19.629Z,103101.06
2022-07-29T22:08:47.906Z,103115.09
2022-07-29T22:11:14.961Z,103140.56
2022-07-29T22:13:41.721Z,103167.00
2022-07-29T22:16:10.164Z,103178.44
2022-07-29T22:18:36.914Z,103202.28
2022-07-29T22:21:03.750Z,103213.75
2022-07-29T22:23:30.989Z,103228.81
2022-07-29T22:25:57.778Z,103229.75
2022-07-29T22:28:24.553Z,103225.53
2022-07-29T22:30:51.351Z,103205.50
2022-07-29T22:33:18.351Z,103206.50
2022-07-29T22:35:48.720Z,103205.75
2022-07-29T22:38:19.448Z,103216.38
2022-07-29T22:40:48.766Z,103218.19
2022-07-29T22:43:17.498Z,103229.66
2022-07-29T22:45:44.462Z,103243.72
2022-07-29T22:48:11.646Z,103263.13
2022-07-29T22:50:39.008Z,103283.34
2022-07-29T22:53:05.998Z,103293.91
2022-07-29T22:55:32.839Z,103315.94
2022-07-29T22:57:59.626Z,103316.88
2022-07-29T23:00:26.501Z,103329.22
2022-07-29T23:02:53.294Z,103331.88
2022-07-29T23:05:20.106Z,103349.47
2022-07-29T23:07:46.872Z,103350.34
2022-07-29T23:10:13.667Z,103360.91
2022-07-29T23:12:40.401Z,103281.69
2022-07-29T23:15:07.867Z,103286.97
2022-07-29T23:17:36.266Z,103291.34
2022-07-29T23:20:08.890Z,103301.91
2022-07-29T23:22:36.889Z,103307.09
2022-07-29T23:25:04.948Z,103322.06
2022-07-29T23:27:32.116Z,103325.59
2022-07-29T23:29:58.985Z,103340.56
2022-07-29T23:32:25.762Z,103354.69
2022-07-29T23:34:52.479Z,103363.47
2022-07-29T23:37:19.240Z,103365.25
2022-07-29T23:39:46.028Z,103374.91
2022-07-29T23:42:12.833Z,103385.53
2022-07-29T23:44:39.616Z,103383.75
2022-07-29T23:47:06.554Z,103390.81
2022-07-29T23:49:33.379Z,103399.59
2022-07-29T23:52:00.169Z,103415.38
2022-07-29T23:54:26.917Z,103437.38
2022-07-29T23:56:53.752Z,103455.81
2022-07-29T23:59:20.562Z,103471.66
